Alsea, Oregon
Current Conditions -  °F | °C
As of 5:35 PM on Saturday 25 Oct 2014 (Local Time) from KCVO Reporting Station
Broken Clouds Broken Clouds  
Wind Chill: 55°   Ceiling: 4600
Heat Index: 55°   Visibility: 7mi
Dew Point: 50°   Wind: 14mph
Humidity: 82%   Direction: 270°W
Pressure: 29.73"   Gusts: 25mph
Location:  44.38°N, 123.6°W
Report Text: KCVO 260035Z AUTO 27012G22KT 7SM FEW030 SCT038 BKN046 13/10 A2973 RMK AO1 P0003
Loading
Personal Weather Stations






























Interactive Weather Map New forecast layout! Learn more

10-Day Weather Forecast

Advertisements
Track Severe Weather on mobile